createdAt,value
2022-08-31T00:13:07.544Z,1.30
2022-08-31T00:27:07.628Z,1.50
2022-08-31T00:41:07.654Z,1.40
2022-08-31T00:55:07.678Z,1.60
2022-08-31T01:09:07.687Z,1.30
2022-08-31T01:23:07.773Z,1.30
2022-08-31T01:37:07.819Z,1.30
2022-08-31T01:51:07.865Z,1.30
2022-08-31T02:05:07.923Z,1.30
2022-08-31T02:19:07.926Z,1.30
2022-08-31T02:33:07.954Z,1.30
2022-08-31T02:47:08.015Z,1.40
2022-08-31T03:01:08.244Z,1.30
2022-08-31T03:15:08.243Z,1.20
2022-08-31T03:29:08.240Z,1.20
2022-08-31T03:43:08.350Z,1.20
2022-08-31T03:57:08.368Z,1.20
2022-08-31T04:11:08.428Z,1.30
2022-08-31T04:25:08.460Z,0.90
2022-08-31T04:41:08.679Z,0.90
2022-08-31T04:56:08.613Z,0.90
2022-08-31T05:11:08.658Z,0.80
2022-08-31T05:26:08.659Z,1.40
2022-08-31T05:41:08.679Z,1.20
2022-08-31T05:56:08.696Z,0.90
2022-08-31T06:11:08.697Z,0.80
2022-08-31T06:26:08.787Z,1.10
2022-08-31T06:41:08.777Z,1.00
2022-08-31T06:56:16.464Z,1.10
2022-08-31T07:11:08.850Z,0.90
2022-08-31T07:26:08.954Z,0.80
2022-08-31T07:41:09.092Z,0.90
2022-08-31T07:56:09.095Z,1.10
2022-08-31T08:12:09.053Z,0.90
2022-08-31T08:27:09.044Z,0.90
2022-08-31T08:43:09.041Z,0.80
2022-08-31T08:58:09.039Z,1.00
2022-08-31T09:13:09.060Z,1.70
2022-08-31T09:28:09.147Z,1.40
2022-08-31T09:43:09.993Z,1.60
2022-08-31T09:58:09.202Z,1.50
2022-08-31T10:13:09.243Z,1.80
2022-08-31T10:28:09.257Z,2.40
2022-08-31T10:43:09.303Z,1.80
2022-08-31T10:45:31.968Z,1.90
2022-08-31T10:59:31.397Z,1.50
2022-08-31T11:14:31.540Z,1.50
2022-08-31T11:29:31.721Z,1.60
2022-08-31T11:44:32.974Z,1.60
2022-08-31T12:00:31.873Z,2.10
2022-08-31T12:15:32.059Z,2.60
2022-08-31T12:30:31.976Z,2.50
2022-08-31T12:45:32.055Z,2.20
2022-08-31T13:00:32.069Z,1.90
2022-08-31T13:15:34.146Z,1.90
2022-08-31T13:30:32.165Z,1.90
2022-08-31T13:45:32.286Z,2.10
2022-08-31T14:00:32.443Z,3.90
2022-08-31T14:16:32.523Z,2.50
2022-08-31T14:32:32.524Z,2.10
2022-08-31T14:47:32.591Z,2.20
2022-08-31T15:02:32.577Z,2.00
2022-08-31T15:17:32.516Z,2.30
2022-08-31T15:32:32.526Z,2.10
2022-08-31T15:47:32.548Z,2.00
2022-08-31T16:03:35.071Z,2.20
2022-08-31T16:18:32.591Z,2.30
2022-08-31T16:33:32.628Z,2.10
2022-08-31T16:48:32.636Z,2.50
2022-08-31T17:03:32.660Z,2.50
2022-08-31T17:18:32.655Z,2.60
2022-08-31T17:33:32.671Z,2.80
2022-08-31T17:48:32.810Z,2.80
2022-08-31T18:03:32.877Z,2.70
2022-08-31T18:18:32.831Z,3.50
2022-08-31T18:32:32.825Z,3.80
2022-08-31T18:46:32.867Z,3.40
2022-08-31T19:00:33.101Z,3.50
2022-08-31T19:14:33.023Z,3.60
2022-08-31T19:29:32.972Z,3.50
2022-08-31T19:43:52.174Z,3.70
2022-08-31T19:57:32.990Z,3.70
2022-08-31T20:11:33.004Z,3.60
2022-08-31T20:25:33.048Z,3.20
2022-08-31T20:39:33.025Z,2.80
2022-08-31T20:53:42.112Z,2.80
2022-08-31T21:07:33.034Z,2.70
2022-08-31T21:21:33.028Z,2.50
2022-08-31T21:35:33.034Z,2.40
2022-08-31T21:49:33.044Z,2.70
2022-08-31T22:03:33.043Z,2.50
2022-08-31T22:17:56.083Z,2.20
2022-08-31T22:31:33.157Z,2.20
2022-08-31T22:45:33.247Z,2.20
2022-08-31T22:59:33.527Z,2.20
2022-08-31T23:13:33.834Z,2.40
2022-08-31T23:27:33.826Z,2.20
2022-08-31T23:41:33.830Z,2.00
2022-08-31T23:55:33.836Z,2.10
